Time;durP1;ratioP1;P1;durP2;ratioP2;P2;SDS_P1;SDS_P2;PMS_P1;PMS_P2;Temp;Humidity;BMP_temperature;BMP_pressure;BME280_temperature;BME280_humidity;BME280_pressure;Samples;Min_cycle;Max_cycle;Signal;HPM_P1;HPM_P2
2022/04/21 00:00:04;;;;;;;;;;;;;;;21.40;27.63;97609.16;5095368;28;1035;-75
2022/04/21 00:02:30;;;;;;;;;;;;;;;21.27;28.16;97611.94;5086731;28;959;-76
2022/04/21 00:04:55;;;;;;;;;;;;;;;21.58;28.14;97619.88;5070687;28;1658;-75
2022/04/21 00:07:22;;;;;;;;;;;;;;;22.07;27.08;97610.94;5057352;28;979;-75
2022/04/21 00:09:48;;;;;;;;;;;;;;;22.11;27.15;97617.31;5057375;28;1985;-75
2022/04/21 00:12:14;;;;;;;;;;;;;;;21.55;27.63;97615.94;5057697;28;891;-75
2022/04/21 00:14:40;;;;;;;;;;;;;;;21.39;27.81;97623.72;5062124;28;1751;-75
2022/04/21 00:17:08;;;;;;;;;;;;;;;21.37;28.07;97623.41;5077756;28;968;-75
2022/04/21 00:19:34;;;;;;;;;;;;;;;21.72;28.12;97624.31;5077564;28;1131;-75
2022/04/21 00:24:43;;;;;;;;;;;;;;;21.91;27.15;97620.41;5072011;28;1718;-75
2022/04/21 00:27:09;;;;;;;;;;;;;;;21.44;27.92;97626.00;5074133;28;966;-76
2022/04/21 00:29:35;;;;;;;;;;;;;;;21.22;28.11;97618.16;5074626;28;1968;-75
2022/04/21 00:32:00;;;;;;;;;;;;;;;21.17;28.35;97635.69;5074227;28;1032;-75
2022/04/21 00:34:26;;;;;;;;;;;;;;;21.73;27.78;97634.38;5076710;28;1754;-75
2022/04/21 00:36:51;;;;;;;;;;;;;;;22.02;27.13;97642.69;5094410;28;1192;-76
2022/04/21 00:39:17;;;;;;;;;;;;;;;22.00;27.07;97639.53;5094744;28;924;-75
2022/04/21 00:41:42;;;;;;;;;;;;;;;21.45;27.90;97639.72;5094748;28;923;-75
2022/04/21 00:44:08;;;;;;;;;;;;;;;21.26;28.26;97641.47;5060622;28;1758;-75
2022/04/21 00:46:34;;;;;;;;;;;;;;;21.23;28.48;97639.53;5074935;28;1839;-75
2022/04/21 00:48:59;;;;;;;;;;;;;;;21.90;27.32;97646.34;5057514;28;1894;-75
2022/04/21 00:51:25;;;;;;;;;;;;;;;22.15;27.00;97654.84;5034204;28;1063;-75
2022/04/21 00:53:50;;;;;;;;;;;;;;;21.69;27.25;97662.78;5034152;28;1012;-75
2022/04/21 00:56:16;;;;;;;;;;;;;;;21.42;27.73;97660.41;5050673;28;1693;-76
2022/04/21 00:58:43;;;;;;;;;;;;;;;21.29;27.74;97670.91;5037416;28;1139;-75
2022/04/21 01:02:46;;;;;;;;;;;;;;;21.24;28.50;97629.84;5025147;28;1697;-75
2022/04/21 01:03:55;;;;;;;;;;;;;;;21.90;27.39;97674.69;5015797;28;963;-75
2022/04/21 01:06:21;;;;;;;;;;;;;;;22.22;26.97;97685.75;5033125;28;1768;-75
2022/04/21 01:08:46;;;;;;;;;;;;;;;21.46;27.90;97692.25;5017244;28;1902;-75
2022/04/21 01:11:13;;;;;;;;;;;;;;;21.24;28.24;97702.59;5034016;28;1002;-75
2022/04/21 01:13:38;;;;;;;;;;;;;;;21.13;28.75;97702.91;5033580;28;943;-75
2022/04/21 01:16:05;;;;;;;;;;;;;;;21.78;27.56;97702.56;5002167;28;1718;-75
2022/04/21 01:18:31;;;;;;;;;;;;;;;22.15;27.11;97703.00;5013971;28;959;-75
2022/04/21 01:20:56;;;;;;;;;;;;;;;21.75;27.06;97685.66;5013617;28;1150;-75
2022/04/21 01:23:22;;;;;;;;;;;;;;;21.39;27.51;97697.31;5049223;28;916;-75
2022/04/21 01:25:47;;;;;;;;;;;;;;;21.19;27.99;97706.78;5065923;28;1817;-75
2022/04/21 01:28:13;;;;;;;;;;;;;;;21.23;28.68;97707.44;5053357;28;1914;-75
2022/04/21 01:30:38;;;;;;;;;;;;;;;21.96;27.24;97698.34;5053397;28;1013;-75
2022/04/21 01:33:04;;;;;;;;;;;;;;;22.19;26.92;97692.34;5018960;28;932;-76
2022/04/21 01:35:29;;;;;;;;;;;;;;;21.70;27.08;97684.19;5023380;28;1705;-75
2022/04/21 01:43:23;;;;;;;;;;;;;;;21.50;28.34;97669.47;5033372;28;999;-75
2022/04/21 01:45:49;;;;;;;;;;;;;;;22.01;27.11;97675.91;5020676;28;1671;-76
2022/04/21 01:48:15;;;;;;;;;;;;;;;22.09;27.01;97654.59;5013423;28;1910;-75
2022/04/21 01:50:40;;;;;;;;;;;;;;;21.42;27.78;97657.59;5013296;28;1075;-76
2022/04/21 01:53:06;;;;;;;;;;;;;;;21.28;27.53;97667.28;5013345;28;966;-75
2022/04/21 01:55:31;;;;;;;;;;;;;;;21.32;27.93;97670.81;5022495;28;1743;-75
2022/04/21 01:57:56;;;;;;;;;;;;;;;21.73;27.87;97666.31;5033000;28;1144;-75
2022/04/21 02:00:22;;;;;;;;;;;;;;;22.11;27.19;97665.50;5041648;28;1671;-75
2022/04/21 02:02:48;;;;;;;;;;;;;;;22.30;26.72;97658.75;5049235;28;974;-75
2022/04/21 02:05:14;;;;;;;;;;;;;;;22.10;26.64;97666.72;5039767;28;1786;-75
2022/04/21 02:07:39;;;;;;;;;;;;;;;21.60;27.42;97668.34;5074966;28;873;-75
2022/04/21 02:10:05;;;;;;;;;;;;;;;21.47;27.41;97665.53;5073954;28;1976;-75
2022/04/21 02:12:31;;;;;;;;;;;;;;;21.29;27.98;97682.22;5105626;28;1203;-75
2022/04/21 02:14:56;;;;;;;;;;;;;;;21.37;28.13;97677.19;5070295;28;1994;-76
2022/04/21 02:17:24;;;;;;;;;;;;;;;21.37;27.91;97688.50;5056186;28;1793;-75
2022/04/21 02:19:49;;;;;;;;;;;;;;;21.35;27.91;97691.78;5073945;28;1701;-75
2022/04/21 02:22:15;;;;;;;;;;;;;;;21.81;27.35;97687.50;5075515;28;1258;-75
2022/04/21 02:24:40;;;;;;;;;;;;;;;22.10;26.82;97680.88;5074971;28;1068;-75
2022/04/21 02:27:05;;;;;;;;;;;;;;;22.11;26.72;97676.81;5056233;28;962;-75
2022/04/21 02:29:31;;;;;;;;;;;;;;;21.58;27.58;97682.16;5056480;28;1902;-75
2022/04/21 02:31:56;;;;;;;;;;;;;;;21.20;28.13;97691.38;5055133;28;1116;-75
2022/04/21 02:34:22;;;;;;;;;;;;;;;21.39;27.93;97691.66;5054728;28;924;-75
2022/04/21 02:36:48;;;;;;;;;;;;;;;21.85;27.30;97691.00;5054792;28;1087;-76
2022/04/21 02:39:13;;;;;;;;;;;;;;;22.13;26.64;97699.84;5069861;28;1798;-76
2022/04/21 02:41:38;;;;;;;;;;;;;;;22.05;26.42;97699.25;5074585;28;1064;-76
2022/04/21 02:44:04;;;;;;;;;;;;;;;21.46;27.29;97697.13;5074993;28;982;-75
2022/04/21 02:46:30;;;;;;;;;;;;;;;21.21;27.70;97695.81;5075086;28;1077;-75
2022/04/21 02:48:55;;;;;;;;;;;;;;;21.27;27.94;97691.16;5062029;28;1971;-75
2022/04/21 02:51:21;;;;;;;;;;;;;;;21.92;26.88;97689.19;5054800;28;910;-75
2022/04/21 02:59:14;;;;;;;;;;;;;;;21.00;27.52;97690.78;5107520;28;1812;-75
2022/04/21 03:01:40;;;;;;;;;;;;;;;21.02;28.17;97705.25;5112790;28;1029;-75
2022/04/21 03:04:05;;;;;;;;;;;;;;;21.74;26.84;97692.59;5112921;28;1008;-75
2022/04/21 03:06:31;;;;;;;;;;;;;;;22.00;26.59;97707.53;5112366;28;986;-75
2022/04/21 03:08:56;;;;;;;;;;;;;;;22.29;25.84;97716.69;5100288;28;1986;-75
2022/04/21 03:11:21;;;;;;;;;;;;;;;21.39;27.11;97732.06;5107934;28;1741;-75
2022/04/21 03:13:47;;;;;;;;;;;;;;;21.06;27.30;97725.75;5112528;28;936;-76
2022/04/21 03:16:12;;;;;;;;;;;;;;;20.91;27.71;97727.41;5092071;28;952;-75
2022/04/21 03:18:38;;;;;;;;;;;;;;;21.44;27.48;97739.22;5091513;28;1710;-76
2022/04/21 03:26:31;;;;;;;;;;;;;;;21.54;26.78;97743.75;5091387;28;1080;-75
2022/04/21 03:28:56;;;;;;;;;;;;;;;21.15;27.20;97737.22;5064605;28;2083;-75
2022/04/21 03:31:23;;;;;;;;;;;;;;;20.98;27.47;97735.66;5055773;28;984;-76
2022/04/21 03:33:50;;;;;;;;;;;;;;;21.46;27.28;97736.75;5055380;28;1067;-75
2022/04/21 03:36:16;;;;;;;;;;;;;;;21.86;26.30;97737.09;5055461;28;1133;-75
2022/04/21 03:38:41;;;;;;;;;;;;;;;22.18;25.81;97746.66;5064262;28;1706;-75
2022/04/21 03:41:07;;;;;;;;;;;;;;;21.44;26.67;97733.56;5075723;28;956;-75
2022/04/21 03:43:32;;;;;;;;;;;;;;;21.12;26.89;97738.09;5075304;28;941;-75
2022/04/21 03:45:58;;;;;;;;;;;;;;;21.07;27.20;97735.81;5075447;28;949;-75
2022/04/21 03:48:23;;;;;;;;;;;;;;;21.55;27.07;97734.84;5070874;28;1976;-77
2022/04/21 03:50:48;;;;;;;;;;;;;;;21.94;26.31;97732.00;5055559;28;1123;-74
2022/04/21 03:53:14;;;;;;;;;;;;;;;22.22;25.54;97733.13;5058104;28;871;-75
2022/04/21 03:55:39;;;;;;;;;;;;;;;21.40;26.85;97733.69;5058013;28;918;-75
2022/04/21 03:58:05;;;;;;;;;;;;;;;21.09;26.76;97730.53;5059224;28;2038;-75
2022/04/21 04:00:30;;;;;;;;;;;;;;;21.30;27.58;97726.31;5057960;28;1037;-75
2022/04/21 04:02:56;;;;;;;;;;;;;;;21.99;26.04;97708.78;5057809;28;963;-75
2022/04/21 04:05:21;;;;;;;;;;;;;;;22.17;25.77;97711.81;5057540;28;887;-75
2022/04/21 04:13:14;;;;;;;;;;;;;;;21.06;27.44;97717.25;5057574;28;908;-75
2022/04/21 04:15:40;;;;;;;;;;;;;;;21.66;26.67;97706.19;5057353;28;914;-75
2022/04/21 04:18:05;;;;;;;;;;;;;;;22.07;26.15;97707.28;5057539;28;939;-75
2022/04/21 04:20:31;;;;;;;;;;;;;;;22.24;25.68;97710.81;5071522;28;1005;-75
2022/04/21 04:22:56;;;;;;;;;;;;;;;21.57;26.45;97708.91;5057546;28;1271;-75
2022/04/21 04:25:22;;;;;;;;;;;;;;;21.30;27.39;97715.00;5071831;28;943;-75
2022/04/21 04:27:47;;;;;;;;;;;;;;;21.26;27.33;97728.41;5057091;28;887;-76
2022/04/21 04:30:13;;;;;;;;;;;;;;;21.49;27.34;97725.28;5057099;28;1906;-76
2022/04/21 04:32:38;;;;;;;;;;;;;;;21.91;26.79;97719.53;5057021;28;900;-76
2022/04/21 04:35:04;;;;;;;;;;;;;;;22.17;26.29;97728.03;5057019;28;883;-76
2022/04/21 04:37:29;;;;;;;;;;;;;;;21.64;27.21;97731.31;5056061;28;905;-75
2022/04/21 04:39:55;;;;;;;;;;;;;;;21.54;27.41;97726.78;5068002;28;1106;-76
2022/04/21 04:42:22;;;;;;;;;;;;;;;21.35;27.67;97722.09;5076820;28;1224;-76
2022/04/21 04:47:34;;;;;;;;;;;;;;;21.98;26.89;97712.88;5076796;28;928;-76
2022/04/21 04:50:00;;;;;;;;;;;;;;;22.27;26.59;97721.22;5077020;28;1968;-76
2022/04/21 04:52:25;;;;;;;;;;;;;;;21.31;27.31;97674.91;5077261;28;1075;-76
2022/04/21 04:54:52;;;;;;;;;;;;;;;21.42;27.67;97725.53;5076996;28;897;-76
2022/04/21 04:57:17;;;;;;;;;;;;;;;21.35;27.86;97730.59;5076721;28;898;-76
2022/04/21 04:59:43;;;;;;;;;;;;;;;22.01;27.00;97720.44;5073969;28;1057;-76
2022/04/21 05:02:08;;;;;;;;;;;;;;;22.29;26.52;97725.19;5074338;28;1114;-76
2022/04/21 05:04:34;;;;;;;;;;;;;;;21.83;26.96;97726.69;5073953;28;955;-76
2022/04/21 05:07:00;;;;;;;;;;;;;;;21.42;27.73;97741.72;5074175;28;917;-75
2022/04/21 05:09:25;;;;;;;;;;;;;;;21.36;27.61;97743.53;5073872;28;1901;-75
2022/04/21 05:11:51;;;;;;;;;;;;;;;21.44;27.89;97740.00;5057080;28;953;-75
2022/04/21 05:14:18;;;;;;;;;;;;;;;22.11;26.59;97733.50;5073917;28;939;-75
2022/04/21 05:16:43;;;;;;;;;;;;;;;22.16;26.58;97732.91;5073861;28;1014;-75
2022/04/21 05:19:09;;;;;;;;;;;;;;;21.57;27.49;97731.56;5056803;28;973;-76
2022/04/21 05:21:35;;;;;;;;;;;;;;;21.43;27.43;97743.28;5073845;28;1059;-76
2022/04/21 05:24:01;;;;;;;;;;;;;;;21.38;27.79;97733.31;5073630;28;934;-76
2022/04/21 05:26:29;;;;;;;;;;;;;;;21.71;27.51;97741.63;5053328;28;1006;-75
2022/04/21 05:28:55;;;;;;;;;;;;;;;22.00;26.99;97739.47;5033568;28;1902;-76
2022/04/21 05:31:20;;;;;;;;;;;;;;;21.92;26.73;97740.19;5048600;28;1104;-75
2022/04/21 05:33:46;;;;;;;;;;;;;;;21.50;27.61;97740.25;5053524;28;930;-75
2022/04/21 05:36:12;;;;;;;;;;;;;;;21.38;27.47;97735.38;5053541;28;1014;-75
2022/04/21 05:38:37;;;;;;;;;;;;;;;21.40;27.66;97741.34;5053258;28;933;-75
2022/04/21 05:41:03;;;;;;;;;;;;;;;21.89;27.22;97724.88;5013493;28;973;-75
2022/04/21 05:43:31;;;;;;;;;;;;;;;22.29;26.34;97736.53;5013626;28;1060;-75
2022/04/21 05:45:56;;;;;;;;;;;;;;;22.00;26.58;97727.34;5013355;28;973;-75
2022/04/21 05:48:22;;;;;;;;;;;;;;;21.42;27.37;97739.69;4993495;28;1906;-75
2022/04/21 05:50:48;;;;;;;;;;;;;;;21.54;27.38;97746.59;4993866;28;1238;-75
2022/04/21 05:53:21;;;;;;;;;;;;;;;21.28;27.75;97746.50;4977249;28;1487;-75
2022/04/21 05:55:46;;;;;;;;;;;;;;;21.83;27.20;97752.97;4977569;28;1013;-75
2022/04/21 05:58:12;;;;;;;;;;;;;;;22.07;26.58;97746.94;4993769;28;1022;-75
2022/04/21 06:00:38;;;;;;;;;;;;;;;21.84;26.73;97763.03;5009225;28;1115;-75
2022/04/21 06:03:04;;;;;;;;;;;;;;;21.42;27.43;97765.16;5013553;28;1026;-76
2022/04/21 06:05:30;;;;;;;;;;;;;;;21.28;27.68;97760.66;5013115;28;1239;-75
2022/04/21 06:07:55;;;;;;;;;;;;;;;21.78;27.08;97758.41;5013271;28;954;-75
2022/04/21 06:10:20;;;;;;;;;;;;;;;22.12;26.48;97746.41;5013089;28;1981;-76
2022/04/21 06:12:46;;;;;;;;;;;;;;;21.96;26.62;97740.84;5028357;28;1049;-75
2022/04/21 06:15:11;;;;;;;;;;;;;;;21.59;27.26;97751.69;5032818;28;1118;-76
2022/04/21 06:17:37;;;;;;;;;;;;;;;21.35;27.76;97758.88;5032797;28;1104;-75
2022/04/21 06:20:02;;;;;;;;;;;;;;;21.37;28.11;97770.56;5032545;28;1009;-75
2022/04/21 06:22:28;;;;;;;;;;;;;;;22.08;26.55;97777.69;5032518;28;1037;-75
2022/04/21 06:24:53;;;;;;;;;;;;;;;22.34;26.29;97795.50;5039894;28;1162;-76
2022/04/21 06:27:19;;;;;;;;;;;;;;;21.59;27.23;97808.31;5092829;28;988;-75
2022/04/21 06:29:44;;;;;;;;;;;;;;;21.33;27.88;97816.75;5092800;28;1980;-75
2022/04/21 06:32:10;;;;;;;;;;;;;;;21.29;27.64;97818.06;5092931;28;1119;-75
2022/04/21 06:34:35;;;;;;;;;;;;;;;21.43;27.79;97811.22;5092348;28;2360;-75
2022/04/21 06:37:00;;;;;;;;;;;;;;;21.94;27.05;97819.81;5092479;28;1019;-75
2022/04/21 06:39:26;;;;;;;;;;;;;;;22.27;26.47;97828.94;5092584;28;1030;-75
2022/04/21 06:41:51;;;;;;;;;;;;;;;21.61;27.03;97820.00;5092696;28;1082;-75
2022/04/21 06:49:46;;;;;;;;;;;;;;;22.97;25.88;97832.72;5072431;28;1977;-78
2022/04/21 06:52:11;;;;;;;;;;;;;;;23.28;25.09;97839.31;5073123;28;956;-78
2022/04/21 06:54:37;;;;;;;;;;;;;;;23.36;25.05;97829.28;5072513;28;932;-79
2022/04/21 06:57:02;;;;;;;;;;;;;;;23.46;25.25;97832.16;5079054;28;955;-80
2022/04/21 06:59:28;;;;;;;;;;;;;;;23.43;25.24;97830.28;5060226;28;1035;-78
2022/04/21 07:01:53;;;;;;;;;;;;;;;23.60;25.22;97837.34;5078541;28;1002;-78
2022/04/21 07:04:20;;;;;;;;;;;;;;;23.60;25.33;97843.00;5078311;28;1010;-77
2022/04/21 07:06:46;;;;;;;;;;;;;;;23.61;25.59;97833.22;5058728;28;2128;-79
2022/04/21 07:09:11;;;;;;;;;;;;;;;23.65;25.53;97840.41;5057100;28;1914;-77
2022/04/21 07:11:38;;;;;;;;;;;;;;;23.78;25.52;97836.72;5056376;28;949;-77
2022/04/21 07:14:04;;;;;;;;;;;;;;;23.85;25.36;97839.25;5035859;28;1017;-76
2022/04/21 07:16:29;;;;;;;;;;;;;;;23.85;25.60;97842.09;5038438;28;1028;-79
2022/04/21 07:18:55;;;;;;;;;;;;;;;23.86;25.70;97835.94;5040693;28;1025;-78
2022/04/21 07:21:20;;;;;;;;;;;;;;;23.94;25.68;97838.53;5039533;28;1200;-78
2022/04/21 07:23:46;;;;;;;;;;;;;;;23.85;25.99;97848.56;5036926;28;1009;-80
2022/04/21 07:26:11;;;;;;;;;;;;;;;23.96;26.12;97847.38;5036721;28;880;-70
2022/04/21 07:28:36;;;;;;;;;;;;;;;24.08;25.96;97843.63;5035806;28;1980;-67
2022/04/21 07:31:02;;;;;;;;;;;;;;;24.12;25.67;97845.09;5035721;28;1021;-68
2022/04/21 07:33:27;;;;;;;;;;;;;;;24.23;25.50;97843.88;5035838;28;1040;-68
2022/04/21 07:35:53;;;;;;;;;;;;;;;24.25;25.67;97852.75;5035491;28;939;-68
2022/04/21 07:38:18;;;;;;;;;;;;;;;24.34;25.51;97859.25;5049903;28;1243;-67
2022/04/21 07:40:47;;;;;;;;;;;;;;;24.27;25.79;97856.69;5038500;28;1039;-68
2022/04/21 07:43:12;;;;;;;;;;;;;;;24.19;25.89;97861.09;5055646;28;1015;-69
2022/04/21 07:45:41;;;;;;;;;;;;;;;24.46;25.42;97859.66;5055542;28;979;-67
2022/04/21 07:48:06;;;;;;;;;;;;;;;24.37;25.39;97861.19;5055761;28;1125;-68
2022/04/21 07:50:32;;;;;;;;;;;;;;;24.51;25.68;97864.72;5057954;28;1977;-68
2022/04/21 07:53:18;;;;;;;;;;;;;;;24.54;25.60;97863.78;5078353;28;920;-68
2022/04/21 07:55:46;;;;;;;;;;;;;;;24.46;25.89;97856.81;5077637;28;1006;-68
2022/04/21 07:58:12;;;;;;;;;;;;;;;24.55;25.78;97865.34;5077597;28;940;-68
2022/04/21 08:00:38;;;;;;;;;;;;;;;24.62;25.76;97859.41;5077597;28;907;-68
2022/04/21 08:03:04;;;;;;;;;;;;;;;24.57;25.75;97845.78;5078206;28;870;-68
2022/04/21 08:05:30;;;;;;;;;;;;;;;24.61;25.63;97849.28;5077420;28;922;-68
2022/04/21 08:07:55;;;;;;;;;;;;;;;24.59;25.85;97837.56;5077428;28;1003;-68
2022/04/21 08:10:21;;;;;;;;;;;;;;;24.66;25.96;97834.44;5074047;28;1909;-68
2022/04/21 08:12:47;;;;;;;;;;;;;;;24.59;26.12;97838.34;5077104;28;1065;-69
2022/04/21 08:15:13;;;;;;;;;;;;;;;24.60;25.98;97850.53;5077001;28;1058;-68
2022/04/21 08:17:39;;;;;;;;;;;;;;;24.72;25.99;97849.63;5058209;28;1237;-68
2022/04/21 08:20:05;;;;;;;;;;;;;;;24.54;26.21;97846.72;5077159;28;1279;-69
2022/04/21 08:22:31;;;;;;;;;;;;;;;24.84;25.63;97848.69;5057896;28;1276;-68
2022/04/21 08:33:08;;;;;;;;;;;;;;;24.79;26.25;97857.06;5078024;28;1261;-78
2022/04/21 08:35:33;;;;;;;;;;;;;;;24.67;26.26;97855.94;5079244;28;891;-81
2022/04/21 08:37:58;;;;;;;;;;;;;;;24.86;26.03;97840.50;5112409;28;1311;-69
2022/04/21 08:40:24;;;;;;;;;;;;;;;24.46;26.80;97846.22;5094699;28;1052;-69
2022/04/21 08:42:52;;;;;;;;;;;;;;;23.37;27.88;97847.09;5078162;28;937;-69
2022/04/21 08:45:18;;;;;;;;;;;;;;;22.92;28.19;97847.50;5053833;28;972;-68
2022/04/21 08:47:46;;;;;;;;;;;;;;;23.00;27.90;97840.28;5054365;28;1140;-68
2022/04/21 08:50:13;;;;;;;;;;;;;;;22.90;28.05;97841.47;5054180;28;1950;-68
2022/04/21 08:52:39;;;;;;;;;;;;;;;23.07;27.78;97849.38;5054096;28;1082;-67
2022/04/21 08:55:05;;;;;;;;;;;;;;;22.59;28.45;97842.09;5054302;28;1125;-77
2022/04/21 08:57:30;;;;;;;;;;;;;;;22.50;28.37;97839.91;5054369;28;949;-76
2022/04/21 08:59:56;;;;;;;;;;;;;;;22.32;28.32;97846.16;5053927;28;898;-76
2022/04/21 09:02:32;;;;;;;;;;;;;;;22.18;28.37;97849.47;5053989;28;922;-76
2022/04/21 09:04:57;;;;;;;;;;;;;;;22.11;28.39;97844.00;5053844;28;950;-76
2022/04/21 09:07:23;;;;;;;;;;;;;;;22.05;28.04;97840.13;5053961;28;976;-76
2022/04/21 09:10:07;;;;;;;;;;;;;;;22.14;27.86;97840.28;5053959;28;1910;-76
2022/04/21 09:12:33;;;;;;;;;;;;;;;21.92;28.49;97842.16;5053752;28;956;-76
2022/04/21 09:15:03;;;;;;;;;;;;;;;21.82;28.36;97839.19;5054108;28;851;-76
2022/04/21 09:17:29;;;;;;;;;;;;;;;21.87;28.53;97852.00;5093910;28;923;-76
2022/04/21 09:19:58;;;;;;;;;;;;;;;21.88;28.53;97844.28;5084618;28;1086;-77
2022/04/21 09:22:23;;;;;;;;;;;;;;;21.89;28.15;97843.03;5093393;28;1154;-76
2022/04/21 09:24:50;;;;;;;;;;;;;;;21.91;28.19;97837.72;5093892;28;1003;-76
2022/04/21 09:27:16;;;;;;;;;;;;;;;21.72;28.55;97834.63;5093765;28;1176;-77
2022/04/21 09:29:41;;;;;;;;;;;;;;;21.70;28.51;97834.28;5070676;28;1914;-76
2022/04/21 09:32:07;;;;;;;;;;;;;;;21.73;28.22;97841.09;5072933;28;1319;-77
2022/04/21 09:34:33;;;;;;;;;;;;;;;21.64;28.48;97844.56;5072903;28;1229;-77
2022/04/21 09:36:59;;;;;;;;;;;;;;;21.57;28.58;97847.63;5102879;28;1248;-77
2022/04/21 09:39:24;;;;;;;;;;;;;;;21.64;28.48;97841.75;5093475;28;1272;-77
2022/04/21 09:41:56;;;;;;;;;;;;;;;21.45;28.59;97837.03;5092972;28;1330;-77
2022/04/21 09:47:18;;;;;;;;;;;;;;;21.41;28.52;97842.03;5092589;28;1149;-76
2022/04/21 09:49:44;;;;;;;;;;;;;;;21.51;28.51;97829.59;5056442;28;1898;-76
2022/04/21 09:52:09;;;;;;;;;;;;;;;21.54;28.43;97834.34;5075508;28;1287;-76
2022/04/21 09:54:35;;;;;;;;;;;;;;;21.46;28.15;97824.50;5075064;28;1228;-76
2022/04/21 09:57:01;;;;;;;;;;;;;;;21.30;28.42;97831.81;5075254;28;1236;-76
2022/04/21 09:59:26;;;;;;;;;;;;;;;21.33;28.54;97828.06;5075128;28;1241;-76
2022/04/21 10:01:52;;;;;;;;;;;;;;;21.35;28.47;97829.66;5072333;28;1410;-76
2022/04/21 10:04:20;;;;;;;;;;;;;;;21.33;28.22;97825.22;5072394;28;1186;-76
2022/04/21 10:06:46;;;;;;;;;;;;;;;21.30;28.10;97831.00;5056026;28;1229;-76
2022/04/21 10:09:12;;;;;;;;;;;;;;;21.32;28.03;97823.66;5072361;28;1914;-75
2022/04/21 10:11:38;;;;;;;;;;;;;;;21.26;28.25;97818.97;5072924;28;1243;-76
2022/04/21 10:14:06;;;;;;;;;;;;;;;21.23;28.30;97819.84;5053156;28;996;-76
2022/04/21 10:16:31;;;;;;;;;;;;;;;21.24;28.04;97816.59;5052341;28;2004;-76
2022/04/21 10:18:59;;;;;;;;;;;;;;;21.20;28.27;97813.06;5053228;28;946;-76
2022/04/21 10:21:26;;;;;;;;;;;;;;;21.60;28.39;97807.06;5012760;28;1228;-76
2022/04/21 10:23:52;;;;;;;;;;;;;;;22.03;27.85;97808.63;4973810;28;999;-76
2022/04/21 10:26:30;;;;;;;;;;;;;;;22.17;27.52;97819.50;4973952;28;1029;-76
2022/04/21 10:28:55;;;;;;;;;;;;;;;21.73;27.71;97807.13;4974064;28;1915;-76
2022/04/21 10:31:29;;;;;;;;;;;;;;;21.53;27.85;97818.63;4974170;28;1036;-76
2022/04/21 10:33:58;;;;;;;;;;;;;;;21.28;28.28;97820.09;4973609;28;966;-76
2022/04/21 10:36:32;;;;;;;;;;;;;;;21.21;28.31;97828.00;4973954;28;942;-76
2022/04/21 10:39:16;;;;;;;;;;;;;;;21.14;28.42;97831.81;4973928;28;953;-76
2022/04/21 10:41:41;;;;;;;;;;;;;;;21.02;28.56;97832.53;4973895;28;1180;-76
2022/04/21 10:44:16;;;;;;;;;;;;;;;21.83;27.38;97823.78;4976172;28;952;-76
2022/04/21 10:46:42;;;;;;;;;;;;;;;22.10;27.05;97820.53;4993162;28;1187;-76
2022/04/21 10:49:09;;;;;;;;;;;;;;;21.73;27.25;97824.09;4973862;28;1898;-76
2022/04/21 10:57:16;;;;;;;;;;;;;;;21.06;28.14;97810.63;4993262;28;1001;-76
2022/04/21 10:59:48;;;;;;;;;;;;;;;21.19;28.53;97819.97;4993133;28;1096;-76
2022/04/21 11:02:14;;;;;;;;;;;;;;;21.82;27.13;97821.41;4993025;28;960;-76
2022/04/21 11:04:39;;;;;;;;;;;;;;;22.14;26.42;97823.28;4961103;28;1025;-76
2022/04/21 11:07:13;;;;;;;;;;;;;;;21.80;26.74;97824.66;4993136;28;1342;-76
2022/04/21 11:09:40;;;;;;;;;;;;;;;21.25;27.69;97818.16;4960352;28;1993;-75
2022/04/21 11:12:06;;;;;;;;;;;;;;;21.24;27.61;97821.44;4993097;28;947;-76
2022/04/21 11:14:32;;;;;;;;;;;;;;;21.06;28.05;97824.75;4993132;28;1134;-77
2022/04/21 11:17:00;;;;;;;;;;;;;;;21.31;27.61;97821.28;4955131;28;1019;-77
2022/04/21 11:19:29;;;;;;;;;;;;;;;21.97;26.58;97816.09;4954122;28;979;-78
2022/04/21 11:22:01;;;;;;;;;;;;;;;22.28;26.27;97820.00;4963271;28;1134;-77
2022/04/21 11:24:26;;;;;;;;;;;;;;;21.58;26.91;97823.72;4976912;28;1050;-77
2022/04/21 11:26:55;;;;;;;;;;;;;;;21.21;27.60;97811.81;5005269;28;1036;-77
2022/04/21 11:29:20;;;;;;;;;;;;;;;21.15;27.93;97824.91;4992913;28;1973;-77
2022/04/21 11:31:46;;;;;;;;;;;;;;;21.23;27.59;97820.63;5004153;28;981;-77
2022/04/21 11:34:20;;;;;;;;;;;;;;;21.78;26.72;97818.66;5012801;28;1102;-78
2022/04/21 11:36:45;;;;;;;;;;;;;;;22.04;26.22;97830.03;5012417;28;988;-78
2022/04/21 11:39:12;;;;;;;;;;;;;;;22.20;25.91;97824.28;5012373;28;924;-78
2022/04/21 11:41:41;;;;;;;;;;;;;;;21.57;26.89;97827.81;4992410;28;1033;-76
2022/04/21 11:44:06;;;;;;;;;;;;;;;21.38;27.19;97808.94;4993282;28;1091;-77
2022/04/21 11:46:32;;;;;;;;;;;;;;;21.30;27.13;97819.69;4995995;28;975;-78
2022/04/21 11:49:00;;;;;;;;;;;;;;;21.20;27.80;97815.88;5050794;28;2020;-78
2022/04/21 11:51:26;;;;;;;;;;;;;;;21.77;26.59;97811.44;5055957;28;1409;-77
2022/04/21 11:53:52;;;;;;;;;;;;;;;22.11;26.26;97815.66;5055655;28;857;-78
2022/04/21 11:56:18;;;;;;;;;;;;;;;21.92;26.12;97830.81;5056053;28;1001;-78
2022/04/21 11:58:44;;;;;;;;;;;;;;;21.49;27.03;97820.75;5055835;28;1032;-77
2022/04/21 12:06:39;;;;;;;;;;;;;;;21.09;27.53;97815.41;5055304;28;971;-77
2022/04/21 12:09:04;;;;;;;;;;;;;;;21.70;26.85;97808.00;5055312;28;1906;-78
2022/04/21 12:11:30;;;;;;;;;;;;;;;22.10;26.20;97808.38;5072897;28;1013;-77
2022/04/21 12:13:55;;;;;;;;;;;;;;;21.93;26.17;97799.22;5075580;28;957;-78
2022/04/21 12:16:44;;;;;;;;;;;;;;;21.40;26.93;97795.13;5055585;28;1441;-77
2022/04/21 12:19:10;;;;;;;;;;;;;;;21.12;27.35;97802.38;5015316;28;1237;-78
2022/04/21 12:21:36;;;;;;;;;;;;;;;21.11;27.70;97807.25;4993005;28;1225;-78
2022/04/21 12:24:10;;;;;;;;;;;;;;;21.73;26.60;97807.13;4995857;28;1007;-78
2022/04/21 12:26:36;;;;;;;;;;;;;;;21.96;26.17;97811.66;4996023;28;929;-78
2022/04/21 12:29:01;;;;;;;;;;;;;;;21.95;26.11;97810.06;4995726;28;1977;-77
2022/04/21 12:31:27;;;;;;;;;;;;;;;21.42;26.84;97809.66;4995976;28;966;-76
2022/04/21 12:33:52;;;;;;;;;;;;;;;21.27;27.35;97809.22;4995549;28;953;-78
2022/04/21 12:36:26;;;;;;;;;;;;;;;21.11;27.39;97812.09;4995547;28;1052;-77
2022/04/21 12:39:00;;;;;;;;;;;;;;;21.49;27.27;97803.78;4995688;28;1023;-77
2022/04/21 12:41:26;;;;;;;;;;;;;;;21.93;26.45;97798.41;5015010;28;1084;-78
2022/04/21 12:43:52;;;;;;;;;;;;;;;22.03;26.03;97794.44;4998595;28;929;-78
2022/04/21 12:46:17;;;;;;;;;;;;;;;22.28;25.93;97796.53;5015237;28;953;-78
2022/04/21 12:48:49;;;;;;;;;;;;;;;21.81;26.13;97789.47;5014848;28;1906;-78
2022/04/21 12:51:20;;;;;;;;;;;;;;;21.36;26.86;97788.81;5014876;28;874;-78
2022/04/21 12:53:53;;;;;;;;;;;;;;;21.09;27.57;97792.75;4995443;28;1016;-78
2022/04/21 12:56:19;;;;;;;;;;;;;;;21.17;27.48;97796.97;4994400;28;991;-77
2022/04/21 12:58:50;;;;;;;;;;;;;;;21.75;26.60;97799.75;4994904;28;887;-78
2022/04/21 13:01:16;;;;;;;;;;;;;;;22.07;25.89;97800.78;4995340;28;1033;-78
2022/04/21 13:03:41;;;;;;;;;;;;;;;21.61;26.49;97800.19;4995655;28;1086;-78
2022/04/21 13:06:07;;;;;;;;;;;;;;;21.27;27.30;97798.69;5034668;28;988;-78
2022/04/21 13:08:32;;;;;;;;;;;;;;;21.06;27.23;97797.25;5034630;28;972;-77
2022/04/21 13:10:58;;;;;;;;;;;;;;;21.12;27.52;97797.50;5034112;28;1917;-78
2022/04/21 13:13:23;;;;;;;;;;;;;;;21.69;26.67;97797.94;5052402;28;1122;-77
2022/04/21 13:15:49;;;;;;;;;;;;;;;22.14;25.86;97794.16;5054208;28;919;-77
2022/04/21 13:18:15;;;;;;;;;;;;;;;21.67;26.34;97804.03;5054019;28;964;-78
2022/04/21 13:23:26;;;;;;;;;;;;;;;21.14;27.58;97803.53;5054097;28;939;-78
2022/04/21 13:25:52;;;;;;;;;;;;;;;21.67;26.68;97801.22;5075595;28;898;-78
2022/04/21 13:28:17;;;;;;;;;;;;;;;22.06;26.06;97793.53;5076028;28;1186;-78
2022/04/21 13:30:43;;;;;;;;;;;;;;;21.94;25.80;97800.00;5076552;28;1918;-78
2022/04/21 13:33:24;;;;;;;;;;;;;;;21.47;26.75;97795.72;5076406;28;905;-77
2022/04/21 13:35:52;;;;;;;;;;;;;;;21.13;27.24;97799.09;5076188;28;899;-77
2022/04/21 13:38:19;;;;;;;;;;;;;;;21.08;27.41;97797.59;5076106;28;916;-77
2022/04/21 13:40:44;;;;;;;;;;;;;;;21.31;27.46;97793.75;5075914;28;974;-78
2022/04/21 13:43:10;;;;;;;;;;;;;;;21.73;26.39;97793.75;5075850;28;941;-78
2022/04/21 13:45:36;;;;;;;;;;;;;;;22.16;25.69;97786.75;5076285;28;862;-78
2022/04/21 13:48:01;;;;;;;;;;;;;;;22.11;25.60;97787.31;5075987;28;881;-78
2022/04/21 13:50:27;;;;;;;;;;;;;;;21.48;26.54;97785.19;5075600;28;1910;-79
2022/04/21 13:52:54;;;;;;;;;;;;;;;21.18;27.12;97777.94;5076262;28;814;-79